Time;durP1;ratioP1;P1;durP2;ratioP2;P2;SDS_P1;SDS_P2;PMS_P1;PMS_P2;Temp;Humidity;BMP_temperature;BMP_pressure;BME280_temperature;BME280_humidity;BME280_pressure;Samples;Min_cycle;Max_cycle;Signal;HPM_P1;HPM_P2
2021/08/27 00:04:00;;;;;;;17.50;7.50;;;;;;;12.69;89.98;98066.98;233801;1201;24205;-79
2021/08/27 00:09:03;;;;;;;21.30;8.00;;;;;;;12.61;89.31;98065.98;234103;1201;24046;-81
2021/08/27 00:14:11;;;;;;;18.80;6.60;;;;;;;12.64;90.26;98055.36;233999;1201;22430;-80
2021/08/27 00:19:16;;;;;;;21.10;7.20;;;;;;;12.67;90.03;98044.58;234030;1202;24313;-79
2021/08/27 00:24:20;;;;;;;16.80;7.20;;;;;;;12.69;90.28;98042.45;233536;1201;25433;-78
2021/08/27 00:29:40;;;;;;;13.70;3.70;;;;;;;12.72;90.42;98037.73;233502;1201;22449;-80
2021/08/27 00:34:43;;;;;;;12.50;3.30;;;;;;;12.70;89.98;98021.73;233772;1202;24045;-77
2021/08/27 00:39:46;;;;;;;11.00;3.30;;;;;;;12.62;89.75;98013.20;233943;1193;24189;-77
2021/08/27 00:44:49;;;;;;;15.80;3.20;;;;;;;12.46;89.32;98003.73;233678;1194;24073;-80
2021/08/27 00:50:05;;;;;;;11.50;3.90;;;;;;;12.34;89.45;98002.67;233708;1201;24068;-78
2021/08/27 00:55:22;;;;;;;;;;;;;;;12.21;89.14;98000.41;233481;1195;23975;-77
2021/08/27 01:00:25;;;;;;;14.00;3.70;;;;;;;12.10;89.17;98006.02;233366;1202;25212;-79
2021/08/27 01:05:32;;;;;;;13.70;4.00;;;;;;;12.01;89.03;98009.32;233720;1195;24065;-79
2021/08/27 01:10:40;;;;;;;12.40;3.80;;;;;;;11.92;89.11;98017.80;233643;1202;24131;-79
2021/08/27 01:16:08;;;;;;;11.00;3.00;;;;;;;11.77;88.44;98027.06;233552;1201;22486;-80
2021/08/27 01:21:49;;;;;;;9.00;2.80;;;;;;;11.59;88.15;98035.33;233742;1204;24091;-79
2021/08/27 01:27:05;;;;;;;8.80;3.40;;;;;;;11.48;88.13;98039.26;233896;1195;24099;-79
2021/08/27 01:32:16;;;;;;;11.30;3.40;;;;;;;11.43;88.41;98043.58;233999;1202;24015;-79
2021/08/27 01:37:22;;;;;;;11.10;3.90;;;;;;;11.47;88.82;98047.94;233761;1202;22484;-79
2021/08/27 01:42:28;;;;;;;10.40;3.60;;;;;;;11.57;89.32;98045.78;233877;1201;23012;-80
2021/08/27 01:47:34;;;;;;;11.90;3.60;;;;;;;11.66;89.09;98051.48;233904;1196;24144;-79
2021/08/27 01:52:39;;;;;;;10.20;3.80;;;;;;;11.74;89.16;98057.35;233969;1201;25039;-77
2021/08/27 01:57:56;;;;;;;11.20;3.20;;;;;;;11.81;89.26;98063.09;233746;1201;25172;-79
2021/08/27 02:03:01;;;;;;;10.20;3.70;;;;;;;11.89;89.40;98066.31;234253;1202;25671;-77
2021/08/27 02:08:05;;;;;;;10.10;3.80;;;;;;;11.96;89.28;98063.92;233501;1202;24080;-81
2021/08/27 02:13:16;;;;;;;12.20;3.60;;;;;;;12.06;89.89;98064.91;233960;1202;22572;-77
2021/08/27 02:18:29;;;;;;;15.10;3.80;;;;;;;12.21;90.23;98065.86;233674;1202;24146;-79
2021/08/27 02:23:36;;;;;;;12.60;4.10;;;;;;;12.24;89.40;98067.05;233714;1196;24140;-82
2021/08/27 02:28:40;;;;;;;15.40;4.30;;;;;;;12.24;89.32;98063.10;234192;1202;22477;-85
2021/08/27 02:33:47;;;;;;;10.50;3.60;;;;;;;12.30;89.54;98064.91;234110;1202;25301;-83
2021/08/27 02:38:52;;;;;;;14.60;3.50;;;;;;;12.25;88.71;98070.13;233744;1202;24147;-79
2021/08/27 02:43:55;;;;;;;13.30;4.50;;;;;;;12.16;88.28;98069.80;233504;1196;24071;-79
2021/08/27 02:48:58;;;;;;;12.90;4.10;;;;;;;12.09;88.60;98064.05;233581;1201;24156;-83
2021/08/27 02:54:03;;;;;;;19.80;4.80;;;;;;;12.07;88.56;98062.52;233774;1207;22468;-79
2021/08/27 02:59:13;;;;;;;12.10;4.30;;;;;;;12.09;88.96;98059.95;233437;1201;25174;-78
2021/08/27 03:05:07;;;;;;;11.90;4.40;;;;;;;12.13;88.94;98063.18;233883;1202;25191;-79
2021/08/27 03:10:32;;;;;;;11.60;4.30;;;;;;;12.12;89.05;98059.13;233513;1198;24054;-79
2021/08/27 03:15:49;;;;;;;12.90;4.20;;;;;;;12.14;88.98;98066.41;233711;1201;25211;-78
2021/08/27 03:21:07;;;;;;;15.60;4.50;;;;;;;12.11;88.92;98065.95;233718;1201;22727;-79
2021/08/27 03:26:29;;;;;;;16.60;4.50;;;;;;;12.06;88.73;98070.89;233443;1204;25353;-79
2021/08/27 03:31:33;;;;;;;10.70;4.10;;;;;;;12.06;89.03;98071.27;233507;1195;22483;-79
2021/08/27 03:36:41;;;;;;;8.40;3.60;;;;;;;12.02;88.65;98082.54;233382;1202;24220;-78
2021/08/27 03:41:43;;;;;;;15.80;4.40;;;;;;;12.00;88.73;98086.26;233578;1202;22608;-77
2021/08/27 03:46:47;;;;;;;15.60;4.40;;;;;;;11.97;88.61;98090.13;233702;1196;22450;-78
2021/08/27 03:51:51;;;;;;;8.70;4.00;;;;;;;11.94;88.41;98092.21;233885;1201;26416;-78
2021/08/27 03:56:55;;;;;;;15.90;5.00;;;;;;;11.94;88.56;98094.09;233897;1202;22528;-79
2021/08/27 04:02:12;;;;;;;16.80;5.00;;;;;;;12.01;89.12;98098.89;233579;1201;22360;-78
2021/08/27 04:07:32;;;;;;;16.10;5.40;;;;;;;12.01;88.56;98103.88;233680;1202;24067;-77
2021/08/27 04:12:37;;;;;;;12.60;4.00;;;;;;;11.96;88.40;98100.96;233740;1202;24143;-79
2021/08/27 04:17:42;;;;;;;14.70;4.60;;;;;;;11.91;88.25;98097.55;233780;1208;22460;-79
2021/08/27 04:22:45;;;;;;;12.00;4.10;;;;;;;11.85;88.24;98102.27;233430;1207;22564;-79
2021/08/27 04:27:47;;;;;;;13.50;4.30;;;;;;;11.86;88.58;98103.60;233822;1200;25082;-78
2021/08/27 04:32:50;;;;;;;10.80;4.50;;;;;;;11.84;88.36;98103.51;233859;1204;25122;-79
2021/08/27 04:37:54;;;;;;;11.40;3.60;;;;;;;11.81;88.55;98102.17;234111;1207;24052;-79
2021/08/27 04:42:56;;;;;;;16.70;4.60;;;;;;;11.79;88.43;98110.66;233963;1205;24220;-79
2021/08/27 04:47:59;;;;;;;11.50;4.10;;;;;;;11.80;88.72;98120.08;234232;1202;26172;-79
2021/08/27 04:53:02;;;;;;;9.10;3.30;;;;;;;11.79;88.66;98121.88;233770;1200;24138;-78
2021/08/27 04:58:04;;;;;;;18.70;4.90;;;;;;;11.77;88.63;98126.98;234057;1206;22459;-78
2021/08/27 05:03:07;;;;;;;23.60;5.10;;;;;;;11.84;89.18;98129.99;234122;1202;24102;-79
2021/08/27 05:08:09;;;;;;;15.60;4.80;;;;;;;11.90;89.09;98131.42;233740;1204;22581;-79
2021/08/27 05:13:12;;;;;;;19.80;5.50;;;;;;;11.93;88.99;98130.40;234003;1208;26104;-80
2021/08/27 05:18:15;;;;;;;15.00;4.20;;;;;;;11.99;89.29;98132.83;234211;1201;24014;-80
2021/08/27 05:23:18;;;;;;;12.60;4.50;;;;;;;12.05;89.27;98134.80;234703;1205;25208;-79
2021/08/27 05:28:21;;;;;;;12.50;4.90;;;;;;;12.09;89.15;98137.58;233971;1205;24259;-79
2021/08/27 05:33:23;;;;;;;23.10;5.60;;;;;;;12.13;88.98;98133.16;233861;1205;24072;-79
2021/08/27 05:38:26;;;;;;;14.40;5.50;;;;;;;12.23;89.61;98133.31;234025;1205;22482;-82
2021/08/27 05:43:28;;;;;;;15.70;5.90;;;;;;;12.44;90.16;98131.86;234109;1206;25171;-79
2021/08/27 05:48:32;;;;;;;17.40;6.00;;;;;;;12.63;90.07;98126.00;234401;1202;22476;-79
2021/08/27 05:53:34;;;;;;;20.80;6.10;;;;;;;12.82;89.89;98127.38;233765;1206;22472;-78
2021/08/27 05:58:37;;;;;;;17.50;5.90;;;;;;;12.87;88.72;98132.87;233917;1203;24141;-78
2021/08/27 06:03:40;;;;;;;16.80;6.30;;;;;;;12.82;88.09;98139.45;234030;1200;22468;-77
2021/08/27 06:08:57;;;;;;;14.10;5.70;;;;;;;12.86;88.10;98132.27;234350;1206;25044;-78
2021/08/27 06:14:10;;;;;;;22.00;6.00;;;;;;;12.99;88.70;98137.00;234401;1201;22460;-77
2021/08/27 06:19:15;;;;;;;17.30;5.50;;;;;;;13.16;88.64;98139.02;233872;1201;24181;-76
2021/08/27 06:24:18;;;;;;;15.20;5.30;;;;;;;13.25;88.40;98143.08;233500;1205;24458;-79
2021/08/27 06:29:20;;;;;;;21.00;5.10;;;;;;;13.30;88.06;98148.05;233821;1201;24106;-78
2021/08/27 06:34:23;;;;;;;16.00;5.20;;;;;;;13.38;88.34;98152.55;233671;1201;22451;-77
2021/08/27 06:39:26;;;;;;;22.20;6.90;;;;;;;13.58;88.71;98154.57;233929;1201;24058;-80
2021/08/27 06:44:28;;;;;;;21.00;5.70;;;;;;;13.70;87.99;98162.05;233937;1201;25281;-81
2021/08/27 06:49:31;;;;;;;8.50;3.50;;;;;;;13.74;86.95;98161.88;233834;1208;24102;-78
2021/08/27 06:54:33;;;;;;;14.90;5.30;;;;;;;13.72;86.64;98170.38;233929;1200;24835;-78
2021/08/27 06:59:36;;;;;;;20.60;6.30;;;;;;;13.85;87.01;98172.87;233886;1202;24144;-78
2021/08/27 07:04:38;;;;;;;24.20;6.10;;;;;;;14.13;87.58;98175.92;233871;1202;22462;-79
2021/08/27 07:09:41;;;;;;;24.60;7.00;;;;;;;14.29;86.43;98180.39;233775;1200;22469;-77
2021/08/27 07:14:44;;;;;;;24.80;7.90;;;;;;;14.24;85.75;98178.52;233841;1202;22444;-80
2021/08/27 07:19:47;;;;;;;33.70;9.30;;;;;;;14.24;85.60;98179.75;233700;1201;24071;-76
2021/08/27 07:24:50;;;;;;;16.60;5.10;;;;;;;14.33;86.40;98185.02;234414;1195;22438;-78
2021/08/27 07:29:52;;;;;;;18.40;5.60;;;;;;;14.44;86.04;98187.03;234066;1208;23090;-78
2021/08/27 07:34:55;;;;;;;18.90;5.60;;;;;;;14.53;85.86;98190.14;234092;1201;23601;-83
2021/08/27 07:39:58;;;;;;;7.70;3.30;;;;;;;14.71;86.19;98194.04;233788;1208;25088;-79
2021/08/27 07:45:01;;;;;;;14.00;4.50;;;;;;;14.66;84.71;98195.64;233829;1205;22453;-78
2021/08/27 07:50:05;;;;;;;17.60;5.80;;;;;;;14.67;85.21;98193.59;233818;1202;22444;-78
2021/08/27 07:55:08;;;;;;;39.00;8.00;;;;;;;14.65;85.01;98195.55;233774;1198;22437;-76
2021/08/27 08:00:11;;;;;;;26.80;7.70;;;;;;;14.70;85.54;98200.41;233950;1203;22448;-77
2021/08/27 08:05:14;;;;;;;34.50;9.20;;;;;;;14.88;85.49;98209.46;234139;1200;24036;-79
2021/08/27 08:10:16;;;;;;;38.90;8.60;;;;;;;15.10;85.11;98207.84;233805;1207;24076;-79
2021/08/27 08:15:22;;;;;;;41.50;10.20;;;;;;;15.39;85.18;98207.29;233866;1202;24095;-78
2021/08/27 08:20:25;;;;;;;37.40;9.00;;;;;;;15.70;83.88;98218.11;234449;1198;24263;-76
2021/08/27 08:25:35;;;;;;;44.60;9.60;;;;;;;15.80;83.21;98219.59;235582;1201;22515;-79
2021/08/27 08:30:38;;;;;;;33.20;7.30;;;;;;;16.06;83.29;98217.40;234333;1201;24089;-79
2021/08/27 08:35:41;;;;;;;29.00;7.90;;;;;;;16.22;81.73;98222.30;234414;1201;24186;-77
2021/08/27 08:40:45;;;;;;;37.20;8.50;;;;;;;16.24;80.68;98227.94;234280;1201;25038;-77
2021/08/27 08:45:50;;;;;;;30.40;7.10;;;;;;;16.40;81.25;98225.34;234236;1201;24202;-79
2021/08/27 08:50:54;;;;;;;25.10;7.60;;;;;;;16.80;81.67;98222.58;235982;1200;24152;-78
2021/08/27 08:55:57;;;;;;;36.70;8.40;;;;;;;17.17;80.58;98231.40;234361;1202;22456;-77
2021/08/27 09:01:00;;;;;;;40.40;8.90;;;;;;;17.47;81.26;98235.91;233873;1206;22390;-77
2021/08/27 09:06:05;;;;;;;32.90;7.60;;;;;;;17.84;80.63;98233.52;234129;1203;23622;-77
2021/08/27 09:11:15;;;;;;;42.00;10.30;;;;;;;18.17;78.81;98232.06;234312;1201;22470;-79
2021/08/27 09:16:22;;;;;;;26.20;7.40;;;;;;;18.41;78.81;98232.90;234364;1201;25218;-78
2021/08/27 09:21:46;;;;;;;33.00;7.80;;;;;;;18.78;77.62;98230.14;234338;1200;22580;-78
2021/08/27 09:26:55;;;;;;;38.90;8.30;;;;;;;18.86;77.27;98227.52;234404;1203;24073;-78
2021/08/27 09:31:58;;;;;;;35.90;7.70;;;;;;;18.83;76.73;98233.98;234011;1201;25209;-77
2021/08/27 09:37:00;;;;;;;19.20;5.60;;;;;;;18.42;75.77;98231.14;233570;1202;24213;-78
2021/08/27 09:42:03;;;;;;;20.60;5.50;;;;;;;18.15;75.59;98231.71;233677;1202;23546;-78
2021/08/27 09:47:19;;;;;;;19.10;5.00;;;;;;;17.96;75.54;98233.51;234224;1196;22576;-78
2021/08/27 09:52:21;;;;;;;14.90;5.00;;;;;;;17.69;74.49;98236.77;233862;1200;25504;-79
2021/08/27 09:57:30;;;;;;;20.10;5.40;;;;;;;17.50;75.34;98237.21;234265;1201;24061;-78
2021/08/27 10:02:47;;;;;;;24.50;7.00;;;;;;;17.52;75.65;98238.89;234832;1201;22521;-78
2021/08/27 10:07:52;;;;;;;13.20;4.70;;;;;;;17.73;75.77;98239.02;234715;1202;24169;-78
2021/08/27 10:12:55;;;;;;;16.30;4.90;;;;;;;17.87;75.08;98236.13;234392;1201;22483;-78
2021/08/27 10:17:59;;;;;;;16.70;5.50;;;;;;;18.03;74.30;98238.71;233611;1201;22463;-75
2021/08/27 10:23:02;;;;;;;15.40;5.30;;;;;;;18.00;73.21;98237.55;234110;1203;25013;-77
2021/08/27 10:28:07;;;;;;;21.90;4.90;;;;;;;18.30;74.94;98236.08;234180;1202;24060;-76
2021/08/27 10:33:10;;;;;;;16.90;4.60;;;;;;;18.51;73.50;98235.13;235610;1206;24033;-76
2021/08/27 10:38:51;;;;;;;13.00;4.20;;;;;;;18.38;71.91;98230.73;233950;1202;25210;-76
2021/08/27 10:44:05;;;;;;;18.20;4.70;;;;;;;18.43;72.28;98227.98;233765;1201;23128;-75
2021/08/27 10:49:08;;;;;;;18.50;5.50;;;;;;;18.94;73.00;98227.23;234980;1201;24143;-77
2021/08/27 10:54:20;;;;;;;28.60;6.70;;;;;;;19.28;72.15;98226.09;234867;1200;24108;-77
2021/08/27 10:59:43;;;;;;;32.10;8.00;;;;;;;19.40;72.45;98225.30;234283;1201;24147;-76
2021/08/27 11:04:46;;;;;;;18.50;5.10;;;;;;;19.56;71.96;98222.86;234590;1201;22453;-76
2021/08/27 11:10:07;;;;;;;17.60;5.50;;;;;;;19.64;71.92;98225.17;234685;1201;25093;-76
2021/08/27 11:15:31;;;;;;;9.20;3.60;;;;;;;19.55;71.68;98224.40;235121;1201;24144;-78
2021/08/27 11:20:34;;;;;;;14.60;3.80;;;;;;;19.41;70.72;98227.88;234167;1204;24070;-77
2021/08/27 11:25:42;;;;;;;21.60;4.50;;;;;;;19.23;70.91;98219.71;234288;1201;22406;-78
2021/08/27 11:30:47;;;;;;;10.00;3.90;;;;;;;19.46;72.31;98217.56;234243;1201;24166;-80
2021/08/27 11:35:50;;;;;;;16.30;4.50;;;;;;;19.61;69.99;98217.98;234370;1201;22453;-77
2021/08/27 11:40:53;;;;;;;14.80;4.90;;;;;;;19.20;67.84;98220.35;234272;1202;22624;-77
2021/08/27 11:45:59;;;;;;;14.70;4.30;;;;;;;18.93;69.20;98220.08;233943;1205;22478;-77
2021/08/27 11:51:05;;;;;;;9.50;3.90;;;;;;;18.94;69.65;98218.09;234457;1201;25258;-80
2021/08/27 11:56:07;;;;;;;19.70;4.70;;;;;;;18.96;70.02;98215.40;234290;1202;22454;-78
2021/08/27 12:01:27;;;;;;;17.00;4.70;;;;;;;19.06;70.22;98211.48;234285;1201;22444;-78
2021/08/27 12:06:30;;;;;;;11.90;4.30;;;;;;;19.14;70.03;98214.13;233938;1201;24089;-80
2021/08/27 12:11:33;;;;;;;13.90;4.00;;;;;;;19.26;70.47;98219.30;233994;1195;24052;-78
2021/08/27 12:16:43;;;;;;;8.00;3.70;;;;;;;19.37;70.27;98217.96;233743;1201;22439;-76
2021/08/27 12:22:02;;;;;;;17.10;5.70;;;;;;;19.40;69.68;98219.09;234408;1201;24160;-79
2021/08/27 12:27:05;;;;;;;19.90;4.70;;;;;;;19.62;70.49;98220.64;234435;1201;24088;-77
2021/08/27 12:32:17;;;;;;;12.50;3.20;;;;;;;19.94;69.88;98214.67;234175;1204;24050;-80
2021/08/27 12:37:19;;;;;;;4.80;2.50;;;;;;;19.85;66.70;98214.60;234001;1201;23062;-77
2021/08/27 12:42:22;;;;;;;7.80;2.30;;;;;;;19.58;65.43;98217.94;233645;1204;25180;-76
2021/08/27 12:47:33;;;;;;;4.60;2.00;;;;;;;19.32;64.87;98217.23;233569;1201;24080;-77
2021/08/27 12:52:37;;;;;;;3.40;1.80;;;;;;;19.22;65.00;98218.30;233689;1195;22481;-78
2021/08/27 12:57:50;;;;;;;3.80;1.90;;;;;;;19.21;64.79;98215.63;233886;1201;24259;-76
2021/08/27 13:03:05;;;;;;;2.80;1.80;;;;;;;19.33;65.07;98214.79;233652;1201;22437;-76
2021/08/27 13:08:15;;;;;;;2.70;1.60;;;;;;;19.57;64.34;98217.84;233641;1201;24100;-76
2021/08/27 13:13:26;;;;;;;5.10;2.10;;;;;;;19.89;64.38;98215.35;233806;1201;24077;-82
2021/08/27 13:18:39;;;;;;;3.40;1.80;;;;;;;19.86;62.37;98213.45;233425;1201;24696;-77
2021/08/27 13:23:42;;;;;;;4.00;1.50;;;;;;;19.81;63.54;98212.96;233776;1202;22463;-77
2021/08/27 13:28:45;;;;;;;6.30;2.60;;;;;;;20.04;63.49;98214.90;233659;1194;22486;-77
2021/08/27 13:33:49;;;;;;;5.80;2.80;;;;;;;20.15;63.64;98214.29;233605;1201;22833;-74
2021/08/27 13:38:52;;;;;;;3.80;2.30;;;;;;;20.21;62.74;98211.80;233965;1202;24164;-77
2021/08/27 13:43:55;;;;;;;6.20;2.90;;;;;;;19.93;61.27;98213.41;233860;1201;22561;-77
2021/08/27 13:48:58;;;;;;;5.00;2.20;;;;;;;20.06;63.18;98209.64;234115;1200;24241;-77
2021/08/27 13:54:05;;;;;;;5.10;2.10;;;;;;;20.38;62.90;98209.41;234077;1201;23212;-78
2021/08/27 13:59:09;;;;;;;4.50;2.40;;;;;;;20.56;60.22;98216.02;233421;1201;22475;-77
2021/08/27 14:04:11;;;;;;;5.50;2.80;;;;;;;20.44;59.42;98223.40;234157;1201;23679;-80
2021/08/27 14:09:14;;;;;;;5.40;2.90;;;;;;;20.44;60.13;98227.43;234328;1201;24141;-77
2021/08/27 14:14:17;;;;;;;3.10;2.10;;;;;;;20.30;59.06;98229.65;233799;1202;22446;-77
2021/08/27 14:19:19;;;;;;;6.10;2.80;;;;;;;19.86;59.43;98231.38;233793;1201;25217;-77
2021/08/27 14:24:22;;;;;;;3.80;2.50;;;;;;;19.36;59.66;98222.25;233414;1201;22469;-78
2021/08/27 14:29:25;;;;;;;4.10;2.20;;;;;;;18.85;60.45;98219.96;233381;1201;25212;-78
2021/08/27 14:34:30;;;;;;;4.30;2.20;;;;;;;18.53;61.58;98219.23;233611;1203;24245;-77
2021/08/27 14:39:33;;;;;;;3.30;2.00;;;;;;;18.28;62.10;98217.07;233471;1201;24068;-77
2021/08/27 14:44:35;;;;;;;3.80;2.30;;;;;;;18.23;62.88;98216.48;233881;1198;24061;-76
2021/08/27 14:49:37;;;;;;;3.80;2.10;;;;;;;18.33;63.43;98221.73;233567;1201;24048;-77
2021/08/27 14:55:00;;;;;;;3.40;2.50;;;;;;;18.36;62.68;98218.32;234112;1200;24055;-78
2021/08/27 15:00:04;;;;;;;3.90;2.30;;;;;;;18.36;62.83;98225.67;233874;1201;24159;-77
2021/08/27 15:05:07;;;;;;;3.00;1.80;;;;;;;18.45;63.14;98228.73;233697;1201;24021;-77
2021/08/27 15:10:11;;;;;;;5.80;2.40;;;;;;;18.46;63.10;98230.00;233556;1201;24202;-78
2021/08/27 15:15:14;;;;;;;3.30;1.40;;;;;;;18.51;63.53;98229.80;233605;1201;24143;-77
2021/08/27 15:20:31;;;;;;;3.90;2.10;;;;;;;18.45;63.44;98229.36;233668;1202;22660;-78
2021/08/27 15:25:40;;;;;;;3.10;1.60;;;;;;;18.46;63.38;98228.61;233674;1201;24114;-75
2021/08/27 15:30:44;;;;;;;2.00;1.30;;;;;;;18.27;63.19;98231.06;233800;1202;25206;-75
2021/08/27 15:35:47;;;;;;;2.50;1.40;;;;;;;18.18;63.62;98235.64;233594;1202;23029;-77
2021/08/27 15:40:49;;;;;;;2.90;1.50;;;;;;;18.04;63.87;98235.63;233610;1203;25286;-76
2021/08/27 15:45:52;;;;;;;2.80;1.50;;;;;;;17.96;64.00;98237.23;233544;1203;24068;-78
2021/08/27 15:50:55;;;;;;;6.80;4.70;;;;;;;17.81;64.95;98243.02;233503;1201;24075;-77
2021/08/27 15:55:58;;;;;;;4.00;2.40;;;;;;;17.72;65.28;98248.94;233529;1195;24425;-75
2021/08/27 16:01:04;;;;;;;2.70;1.70;;;;;;;17.62;66.16;98255.09;233666;1202;22439;-79
2021/08/27 16:06:07;;;;;;;0.90;0.70;;;;;;;17.24;66.16;98260.21;233651;1201;24011;-77
2021/08/27 16:11:10;;;;;;;1.60;0.90;;;;;;;16.90;66.51;98259.70;233765;1201;24110;-78
2021/08/27 16:16:28;;;;;;;1.10;0.70;;;;;;;16.72;67.08;98267.97;233462;1201;24146;-79
2021/08/27 16:21:44;;;;;;;0.80;0.60;;;;;;;16.72;67.90;98273.70;233668;1201;24055;-77
2021/08/27 16:26:47;;;;;;;1.70;1.00;;;;;;;16.82;68.46;98273.00;233778;1203;24109;-77
2021/08/27 16:31:50;;;;;;;1.60;0.80;;;;;;;16.91;68.76;98272.95;233937;1201;24072;-77
2021/08/27 16:36:53;;;;;;;2.80;1.00;;;;;;;17.03;69.14;98275.77;234315;1204;24155;-82
2021/08/27 16:41:56;;;;;;;1.90;1.10;;;;;;;17.20;69.77;98273.95;233674;1201;25201;-78
2021/08/27 16:46:59;;;;;;;1.10;0.90;;;;;;;17.27;69.65;98274.69;233720;1201;22557;-78
2021/08/27 16:52:01;;;;;;;2.00;1.20;;;;;;;17.27;69.62;98277.86;233616;1201;24083;-77
2021/08/27 16:57:04;;;;;;;1.60;1.10;;;;;;;17.26;69.81;98277.90;233609;1201;24836;-75
2021/08/27 17:02:07;;;;;;;3.00;1.70;;;;;;;17.21;70.64;98282.70;233567;1201;25344;-76
2021/08/27 17:07:13;;;;;;;2.20;1.10;;;;;;;17.17;71.48;98286.30;233660;1201;22451;-77
2021/08/27 17:12:16;;;;;;;3.20;1.60;;;;;;;17.13;71.89;98286.04;234111;1193;22537;-77
2021/08/27 17:17:20;;;;;;;5.30;1.70;;;;;;;17.03;71.97;98284.92;234075;1201;24113;-77
2021/08/27 17:22:22;;;;;;;7.00;1.60;;;;;;;16.89;72.08;98295.54;233967;1201;23998;-73
2021/08/27 17:27:25;;;;;;;4.20;2.70;;;;;;;16.64;71.79;98302.60;233997;1201;24030;-77
2021/08/27 17:32:30;;;;;;;2.20;1.40;;;;;;;16.35;71.91;98307.96;233862;1201;22475;-77
2021/08/27 17:37:33;;;;;;;5.20;1.90;;;;;;;16.10;72.40;98310.02;233861;1201;24068;-76
2021/08/27 17:42:35;;;;;;;3.00;1.50;;;;;;;15.89;72.54;98303.53;233701;1201;25603;-83
2021/08/27 17:47:39;;;;;;;5.30;1.80;;;;;;;15.59;72.52;98305.76;233690;1202;25811;-77
2021/08/27 17:52:42;;;;;;;7.00;2.40;;;;;;;15.19;72.55;98311.61;233720;1200;22517;-77
2021/08/27 17:57:45;;;;;;;12.10;2.80;;;;;;;14.83;72.79;98324.14;233742;1201;24029;-77
2021/08/27 18:02:47;;;;;;;5.30;2.50;;;;;;;14.58;73.80;98326.15;233843;1201;22447;-75
2021/08/27 18:07:51;;;;;;;5.70;2.20;;;;;;;14.48;75.03;98331.34;233721;1201;22475;-77
2021/08/27 18:12:54;;;;;;;7.10;2.30;;;;;;;14.44;75.66;98335.94;233822;1201;22427;-75
2021/08/27 18:17:58;;;;;;;5.90;2.40;;;;;;;14.37;75.87;98340.81;233780;1201;24225;-76
2021/08/27 18:23:02;;;;;;;13.30;4.40;;;;;;;14.32;76.32;98338.85;233564;1203;24251;-74
2021/08/27 18:28:05;;;;;;;5.70;3.00;;;;;;;14.24;76.31;98340.53;233585;1201;22563;-77
2021/08/27 18:33:08;;;;;;;7.30;2.90;;;;;;;14.13;76.56;98342.94;233580;1201;25078;-75
2021/08/27 18:38:15;;;;;;;12.30;3.30;;;;;;;13.98;76.36;98352.62;233619;1195;24052;-77
2021/08/27 18:43:19;;;;;;;6.50;2.70;;;;;;;13.86;76.81;98357.34;233650;1195;22397;-76
2021/08/27 18:48:22;;;;;;;10.00;4.70;;;;;;;13.73;76.82;98357.10;233826;1201;24088;-78
2021/08/27 18:53:25;;;;;;;14.30;5.80;;;;;;;13.65;77.11;98367.32;233783;1196;24041;-77
2021/08/27 18:58:27;;;;;;;14.70;5.70;;;;;;;13.64;77.49;98368.42;233631;1200;22516;-75
2021/08/27 19:03:30;;;;;;;16.60;5.50;;;;;;;13.65;77.81;98367.26;233603;1202;25174;-77
2021/08/27 19:08:33;;;;;;;13.40;4.90;;;;;;;13.68;78.25;98372.38;233562;1201;24096;-78
2021/08/27 19:13:35;;;;;;;13.30;5.00;;;;;;;13.74;78.57;98380.70;233413;1202;24078;-75
2021/08/27 19:18:39;;;;;;;15.80;5.20;;;;;;;13.76;78.20;98394.91;233220;1201;22460;-77
2021/08/27 19:23:41;;;;;;;12.50;4.50;;;;;;;13.71;78.45;98396.19;233691;1202;22463;-76
2021/08/27 19:28:44;;;;;;;12.20;4.90;;;;;;;13.62;78.58;98397.27;233227;1204;22565;-74
2021/08/27 19:33:51;;;;;;;16.20;5.10;;;;;;;13.58;78.95;98393.22;233295;1202;24085;-75
2021/08/27 19:38:55;;;;;;;10.60;4.80;;;;;;;13.51;79.10;98402.46;233404;1202;24077;-78
2021/08/27 19:43:58;;;;;;;10.50;4.90;;;;;;;13.44;79.25;98398.48;233226;1195;24079;-78
2021/08/27 19:49:00;;;;;;;11.40;4.20;;;;;;;13.36;79.29;98392.58;233300;1202;25345;-78
2021/08/27 19:54:05;;;;;;;11.40;5.30;;;;;;;13.38;79.89;98389.20;233297;1201;24935;-81
2021/08/27 19:59:12;;;;;;;11.00;4.60;;;;;;;13.39;79.99;98384.73;233353;1201;22608;-76
2021/08/27 20:04:35;;;;;;;10.80;4.30;;;;;;;13.42;80.25;98379.70;233414;1195;24152;-78
2021/08/27 20:09:37;;;;;;;15.80;5.60;;;;;;;13.46;80.47;98383.54;233371;1201;24092;-80
2021/08/27 20:14:40;;;;;;;9.60;4.90;;;;;;;13.47;80.45;98386.70;233560;1196;25309;-85
2021/08/27 20:19:43;;;;;;;16.50;5.60;;;;;;;13.33;79.50;98390.05;233400;1201;25442;-75
2021/08/27 20:24:46;;;;;;;17.80;6.40;;;;;;;13.17;79.58;98392.22;233746;1202;24172;-77
2021/08/27 20:29:48;;;;;;;15.20;6.30;;;;;;;13.12;80.21;98392.68;233591;1195;24049;-76
2021/08/27 20:34:52;;;;;;;15.50;6.30;;;;;;;13.08;80.47;98390.48;233662;1201;24074;-77
2021/08/27 20:39:54;;;;;;;16.20;6.10;;;;;;;13.05;80.43;98389.77;233465;1196;24570;-77
2021/08/27 20:44:57;;;;;;;14.90;6.50;;;;;;;13.04;80.93;98397.32;233548;1202;22504;-77
2021/08/27 20:49:59;;;;;;;15.80;6.20;;;;;;;12.99;80.63;98395.95;233621;1196;22562;-77
2021/08/27 20:55:03;;;;;;;17.50;6.20;;;;;;;12.80;80.07;98394.35;233722;1201;25196;-76
2021/08/27 21:00:19;;;;;;;19.30;6.60;;;;;;;12.69;80.70;98390.62;233677;1202;22469;-78
2021/08/27 21:05:35;;;;;;;16.40;6.20;;;;;;;12.71;81.62;98390.88;233530;1202;24016;-79
2021/08/27 21:10:37;;;;;;;19.00;7.70;;;;;;;12.75;81.85;98388.84;233478;1195;25297;-78
2021/08/27 21:15:41;;;;;;;17.30;7.50;;;;;;;12.74;81.82;98390.95;233320;1201;24084;-78
2021/08/27 21:20:44;;;;;;;21.20;7.30;;;;;;;12.68;81.59;98397.73;233275;1201;24154;-77
2021/08/27 21:25:48;;;;;;;14.20;6.50;;;;;;;12.64;81.76;98406.08;233258;1195;25368;-74
2021/08/27 21:30:58;;;;;;;16.70;8.00;;;;;;;12.59;81.74;98407.83;233147;1201;22494;-79
2021/08/27 21:36:20;;;;;;;10.60;6.80;;;;;;;12.48;81.41;98410.20;233262;1198;23315;-77
2021/08/27 21:41:23;;;;;;;18.40;7.10;;;;;;;12.16;80.42;98405.88;233350;1204;24071;-77
2021/08/27 21:46:25;;;;;;;14.10;6.40;;;;;;;11.98;80.82;98407.66;233674;1195;24068;-77
2021/08/27 21:51:28;;;;;;;18.10;7.70;;;;;;;11.74;80.65;98409.59;233335;1201;24736;-75
2021/08/27 21:56:31;;;;;;;18.80;8.70;;;;;;;11.53;80.80;98414.39;233276;1202;25171;-75
2021/08/27 22:01:33;;;;;;;17.10;7.30;;;;;;;11.33;81.11;98407.79;233276;1201;24205;-76
2021/08/27 22:06:36;;;;;;;20.40;8.30;;;;;;;11.19;81.41;98414.81;233426;1202;25292;-77
2021/08/27 22:11:41;;;;;;;24.40;10.80;;;;;;;11.06;81.63;98417.27;233292;1205;24095;-75
2021/08/27 22:16:45;;;;;;;19.50;9.10;;;;;;;10.96;81.92;98419.71;233521;1201;24065;-77
2021/08/27 22:21:47;;;;;;;15.70;8.10;;;;;;;10.94;82.76;98418.79;233365;1208;22476;-77
2021/08/27 22:26:50;;;;;;;18.10;7.50;;;;;;;11.02;83.49;98417.29;233160;1200;22460;-77
2021/08/27 22:31:52;;;;;;;17.20;8.80;;;;;;;11.10;83.94;98419.73;233264;1203;22446;-75
2021/08/27 22:36:55;;;;;;;19.40;8.30;;;;;;;11.09;83.17;98420.90;233148;1202;24584;-77
2021/08/27 22:41:58;;;;;;;11.00;5.60;;;;;;;10.92;82.68;98422.80;233256;1196;25172;-76
2021/08/27 22:47:00;;;;;;;11.80;6.10;;;;;;;10.75;82.52;98423.45;233217;1202;22974;-74
2021/08/27 22:52:03;;;;;;;13.00;6.40;;;;;;;10.61;82.87;98425.13;233254;1201;25253;-80
2021/08/27 22:57:11;;;;;;;14.40;6.30;;;;;;;10.50;83.14;98427.14;233277;1202;23995;-77
2021/08/27 23:02:13;;;;;;;12.60;6.10;;;;;;;10.40;83.66;98430.86;233267;1195;23050;-77
2021/08/27 23:07:17;;;;;;;14.90;5.60;;;;;;;10.31;83.67;98431.02;233184;1208;25041;-77
2021/08/27 23:12:20;;;;;;;12.90;6.00;;;;;;;10.27;84.06;98430.34;233258;1202;22461;-75
2021/08/27 23:17:24;;;;;;;13.50;5.30;;;;;;;10.21;84.20;98435.70;233312;1201;22402;-77
2021/08/27 23:22:26;;;;;;;12.90;5.60;;;;;;;10.13;84.53;98432.67;233366;1205;24065;-78
2021/08/27 23:27:29;;;;;;;17.60;7.00;;;;;;;10.07;84.63;98434.29;233310;1195;25276;-75
2021/08/27 23:32:32;;;;;;;11.50;5.50;;;;;;;10.04;84.98;98432.39;233436;1202;24076;-76